Time,TemperatureF,DewpointF,PressureIn,WindDirection,WindDirectionDegrees,WindSpeedMPH,WindSpeedGustMPH,Humidity,HourlyPrecipIn,Conditions,Clouds,dailyrainin,SoftwareType,DateUTC
2013-07-03 00:04:00,55.0,52.0,29.68,South,182,0.0,0.0,88,0.00,,,0.30,,2013-07-03 08:04:00,
2013-07-03 00:13:00,53.0,50.0,29.69,South,182,0.0,1.0,89,0.00,,,0.30,,2013-07-03 08:13:00,
2013-07-03 00:23:00,53.0,50.0,29.69,South,182,0.0,1.0,89,0.00,,,0.30,,2013-07-03 08:23:00,
2013-07-03 00:35:00,53.0,50.0,29.69,South,182,0.0,1.0,89,0.00,,,0.30,,2013-07-03 08:35:00,
2013-07-03 01:02:00,52.0,49.0,29.71,South,182,0.0,0.0,90,0.00,,,0.30,,2013-07-03 09:02:00,
2013-07-03 01:35:00,50.0,47.0,29.72,South,182,0.0,0.0,90,0.00,,,0.30,,2013-07-03 09:35:00,
2013-07-03 01:44:00,50.0,47.0,29.73,South,182,0.0,1.0,91,0.00,,,0.30,,2013-07-03 09:44:00,
2013-07-03 01:53:00,50.0,47.0,29.73,South,182,0.0,1.0,91,0.00,,,0.30,,2013-07-03 09:53:00,
2013-07-03 02:03:00,50.0,47.0,29.73,South,182,0.0,1.0,91,0.00,,,0.30,,2013-07-03 10:03:00,
2013-07-03 02:13:00,51.0,48.0,29.73,South,182,0.0,1.0,90,0.00,,,0.30,,2013-07-03 10:13:00,
2013-07-03 02:22:00,51.0,48.0,29.73,South,182,0.0,1.0,90,0.00,,,0.30,,2013-07-03 10:22:00,
2013-07-03 02:35:00,51.0,48.0,29.73,South,182,0.0,1.0,90,0.00,,,0.30,,2013-07-03 10:35:00,
2013-07-03 02:43:00,52.0,47.0,29.75,South,190,0.0,2.0,82,0.00,,,0.30,,2013-07-03 10:43:00,
2013-07-03 02:53:00,52.0,47.0,29.75,South,190,0.0,2.0,82,0.00,,,0.30,,2013-07-03 10:53:00,
2013-07-03 03:03:00,52.0,47.0,29.75,South,190,0.0,2.0,82,0.00,,,0.30,,2013-07-03 11:03:00,
2013-07-03 03:22:00,53.0,47.0,29.76,SSW,198,0.0,2.0,80,0.00,,,0.30,,2013-07-03 11:22:00,
2013-07-03 03:42:00,52.0,47.0,29.77,SSW,198,0.0,0.0,82,0.00,,,0.30,,2013-07-03 11:42:00,
2013-07-03 03:53:00,52.0,47.0,29.77,SSW,198,0.0,0.0,82,0.00,,,0.30,,2013-07-03 11:53:00,
2013-07-03 04:04:00,52.0,47.0,29.77,SSW,198,0.0,0.0,82,0.00,,,0.30,,2013-07-03 12:04:00,
2013-07-03 04:12:00,52.0,47.0,29.77,SSW,198,0.0,0.0,82,0.00,,,0.30,,2013-07-03 12:12:00,
2013-07-03 04:22:00,51.0,47.0,29.77,SSW,198,0.0,0.0,86,0.00,,,0.30,,2013-07-03 12:22:00,
2013-07-03 04:35:00,51.0,47.0,29.77,SSW,198,0.0,0.0,86,0.00,,,0.30,,2013-07-03 12:35:00,
2013-07-03 04:43:00,48.0,44.0,29.78,SSW,198,0.0,2.0,86,0.00,,,0.30,,2013-07-03 12:43:00,
2013-07-03 05:03:00,48.0,44.0,29.78,SSW,198,0.0,2.0,86,0.00,,,0.30,,2013-07-03 13:03:00,
2013-07-03 05:13:00,48.0,44.0,29.78,SSW,198,0.0,2.0,86,0.00,,,0.30,,2013-07-03 13:13:00,
2013-07-03 05:23:00,47.0,44.0,29.79,SSW,198,0.0,1.0,88,0.00,,,0.30,,2013-07-03 13:23:00,
2013-07-03 05:35:00,47.0,44.0,29.79,SSW,198,0.0,1.0,88,0.00,,,0.30,,2013-07-03 13:35:00,
2013-07-03 05:45:00,47.0,44.0,29.79,SSW,198,0.0,1.0,88,0.00,,,0.30,,2013-07-03 13:45:00,
2013-07-03 05:53:00,48.0,45.0,29.80,SSW,198,0.0,1.0,88,0.00,,,0.26,,2013-07-03 13:53:00,
2013-07-03 06:05:00,48.0,45.0,29.80,SSW,198,0.0,1.0,88,0.00,,,0.26,,2013-07-03 14:05:00,
2013-07-03 06:13:00,48.0,45.0,29.80,SSW,198,0.0,1.0,88,0.00,,,0.26,,2013-07-03 14:13:00,
2013-07-03 06:34:00,48.0,45.0,29.81,SSW,198,0.0,0.0,88,0.00,,,0.26,,2013-07-03 14:34:00,
2013-07-03 06:44:00,48.0,45.0,29.83,SW,219,0.0,0.0,88,0.00,,,0.26,,2013-07-03 14:44:00,
2013-07-03 06:53:00,48.0,45.0,29.83,SW,219,0.0,0.0,88,0.00,,,0.26,,2013-07-03 14:53:00,
2013-07-03 07:22:00,48.0,45.0,29.83,SW,219,0.0,0.0,88,0.00,,,0.26,,2013-07-03 15:22:00,
2013-07-03 07:53:00,49.0,45.0,29.84,SW,219,0.0,0.0,87,0.00,,,0.26,,2013-07-03 15:53:00,
2013-07-03 08:04:00,49.0,45.0,29.84,SW,219,0.0,0.0,87,0.00,,,0.26,,2013-07-03 16:04:00,
2013-07-03 08:12:00,49.0,45.0,29.84,SW,219,0.0,0.0,87,0.00,,,0.26,,2013-07-03 16:12:00,
2013-07-03 08:22:00,50.0,46.0,29.84,SW,219,0.0,0.0,87,0.00,,,0.26,,2013-07-03 16:22:00,
2013-07-03 08:34:00,50.0,46.0,29.84,SW,219,0.0,0.0,87,0.00,,,0.26,,2013-07-03 16:34:00,
2013-07-03 08:44:00,52.0,49.0,29.84,SW,219,0.0,0.0,88,0.00,,,0.26,,2013-07-03 16:44:00,
2013-07-03 08:53:00,52.0,49.0,29.84,SW,219,0.0,0.0,88,0.00,,,0.26,,2013-07-03 16:53:00,
2013-07-03 09:04:00,52.0,49.0,29.84,SW,219,0.0,0.0,88,0.00,,,0.26,,2013-07-03 17:04:00,
2013-07-03 09:13:00,53.0,50.0,29.85,SW,219,0.0,0.0,88,0.00,,,0.26,,2013-07-03 17:13:00,
2013-07-03 09:36:00,53.0,50.0,29.85,SW,219,0.0,0.0,88,0.00,,,0.26,,2013-07-03 17:36:00,
2013-07-03 09:46:00,55.0,51.0,29.85,SW,219,0.0,1.0,86,0.00,,,0.26,,2013-07-03 17:46:00,
2013-07-03 09:52:00,55.0,51.0,29.85,SW,219,0.0,1.0,86,0.00,,,0.26,,2013-07-03 17:52:00,
2013-07-03 10:03:00,55.0,51.0,29.85,SW,219,0.0,1.0,86,0.00,,,0.26,,2013-07-03 18:03:00,
2013-07-03 10:23:00,57.0,50.0,29.85,SSW,208,0.0,2.0,76,0.00,,,0.26,,2013-07-03 18:23:00,
2013-07-03 10:35:00,57.0,50.0,29.85,SSW,208,0.0,2.0,76,0.00,,,0.26,,2013-07-03 18:35:00,
2013-07-03 11:03:00,60.0,47.0,29.86,SSE,164,0.0,3.0,62,0.00,,,0.26,,2013-07-03 19:03:00,
2013-07-03 11:14:00,60.0,47.0,29.86,SSE,164,0.0,3.0,62,0.00,,,0.26,,2013-07-03 19:14:00,
2013-07-03 11:24:00,61.0,47.0,29.85,SSE,158,1.0,2.0,59,0.00,,,0.26,,2013-07-03 19:24:00,
2013-07-03 11:34:00,61.0,47.0,29.85,SSE,158,1.0,2.0,59,0.00,,,0.26,,2013-07-03 19:34:00,
2013-07-03 11:44:00,63.0,46.0,29.85,South,169,1.0,4.0,54,0.00,,,0.25,,2013-07-03 19:44:00,
2013-07-03 11:53:00,63.0,46.0,29.85,South,169,1.0,4.0,54,0.00,,,0.25,,2013-07-03 19:53:00,
2013-07-03 12:02:00,63.0,46.0,29.85,South,169,1.0,4.0,54,0.00,,,0.25,,2013-07-03 20:02:00,
2013-07-03 12:22:00,65.0,45.0,29.86,South,189,1.0,5.0,49,0.00,,,0.25,,2013-07-03 20:22:00,
2013-07-03 12:35:00,65.0,45.0,29.86,South,189,1.0,5.0,49,0.00,,,0.25,,2013-07-03 20:35:00,
2013-07-03 12:43:00,62.0,46.0,29.87,SSW,212,1.0,3.0,56,0.00,,,0.25,,2013-07-03 20:43:00,
2013-07-03 12:53:00,62.0,46.0,29.87,SSW,212,1.0,3.0,56,0.00,,,0.25,,2013-07-03 20:53:00,
2013-07-03 13:04:00,62.0,46.0,29.87,SSW,212,1.0,3.0,56,0.00,,,0.25,,2013-07-03 21:04:00,
2013-07-03 13:11:00,61.0,50.0,29.87,West,267,0.0,1.0,66,0.00,,,0.25,,2013-07-03 21:11:00,
2013-07-03 13:22:00,61.0,50.0,29.87,West,267,0.0,1.0,66,0.00,,,0.25,,2013-07-03 21:22:00,
2013-07-03 13:34:00,61.0,50.0,29.87,West,267,0.0,1.0,66,0.00,,,0.25,,2013-07-03 21:34:00,
2013-07-03 13:43:00,65.0,46.0,29.87,SSW,205,1.0,3.0,50,0.00,,,0.25,,2013-07-03 21:43:00,
2013-07-03 13:52:00,65.0,46.0,29.87,SSW,205,1.0,3.0,50,0.00,,,0.25,,2013-07-03 21:52:00,
2013-07-03 14:02:00,65.0,46.0,29.87,SSW,205,1.0,3.0,50,0.00,,,0.25,,2013-07-03 22:02:00,
2013-07-03 14:12:00,66.0,45.0,29.88,WSW,251,1.0,4.0,47,0.00,,,0.25,,2013-07-03 22:12:00,
2013-07-03 14:22:00,66.0,45.0,29.88,WSW,251,1.0,4.0,47,0.00,,,0.25,,2013-07-03 22:22:00,
2013-07-03 14:35:00,66.0,45.0,29.88,WSW,251,1.0,4.0,47,0.00,,,0.25,,2013-07-03 22:35:00,
2013-07-03 14:44:00,63.0,46.0,29.88,WSW,252,1.0,2.0,53,0.00,,,0.25,,2013-07-03 22:44:00,
2013-07-03 14:53:00,63.0,46.0,29.88,WSW,252,1.0,2.0,53,0.00,,,0.25,,2013-07-03 22:53:00,
2013-07-03 15:02:00,63.0,46.0,29.88,WSW,252,1.0,2.0,53,0.00,,,0.25,,2013-07-03 23:02:00,
2013-07-03 15:13:00,63.0,46.0,29.88,WSW,252,1.0,2.0,53,0.00,,,0.25,,2013-07-03 23:13:00,
2013-07-03 15:52:00,64.0,46.0,29.87,West,266,0.0,2.0,52,0.00,,,0.25,,2013-07-03 23:52:00,
2013-07-03 16:02:00,64.0,46.0,29.87,West,266,0.0,2.0,52,0.00,,,0.25,,2013-07-04 00:02:00,
2013-07-03 16:12:00,64.0,46.0,29.87,West,266,0.0,2.0,52,0.00,,,0.25,,2013-07-04 00:12:00,
2013-07-03 16:22:00,66.0,43.0,29.87,SSE,150,1.0,3.0,44,0.00,,,0.25,,2013-07-04 00:22:00,
2013-07-03 16:35:00,66.0,43.0,29.87,SSE,150,1.0,3.0,44,0.00,,,0.25,,2013-07-04 00:35:00,
2013-07-03 16:43:00,67.0,47.0,29.86,NNW,328,1.0,3.0,49,0.00,,,0.25,,2013-07-04 00:43:00,
2013-07-03 16:53:00,67.0,47.0,29.86,NNW,328,1.0,3.0,49,0.00,,,0.25,,2013-07-04 00:53:00,
2013-07-03 17:03:00,67.0,47.0,29.86,NNW,328,1.0,3.0,49,0.00,,,0.25,,2013-07-04 01:03:00,
2013-07-03 17:13:00,67.0,47.0,29.86,NNW,328,1.0,3.0,49,0.00,,,0.25,,2013-07-04 01:13:00,
2013-07-03 17:34:00,66.0,46.0,29.86,SSE,162,0.0,4.0,48,0.00,,,0.25,,2013-07-04 01:34:00,
2013-07-03 17:43:00,67.0,45.0,29.85,WSW,250,1.0,3.0,45,0.00,,,0.25,,2013-07-04 01:43:00,
2013-07-03 17:52:00,67.0,45.0,29.85,WSW,250,1.0,3.0,45,0.00,,,0.25,,2013-07-04 01:52:00,
2013-07-03 18:04:00,67.0,45.0,29.85,WSW,250,1.0,3.0,45,0.00,,,0.25,,2013-07-04 02:04:00,
2013-07-03 18:12:00,67.0,45.0,29.85,WSW,250,1.0,3.0,45,0.00,,,0.25,,2013-07-04 02:12:00,
2013-07-03 18:22:00,65.0,45.0,29.85,WSW,251,0.0,0.0,48,0.00,,,0.25,,2013-07-04 02:22:00,
2013-07-03 18:36:00,65.0,45.0,29.85,WSW,251,0.0,0.0,48,0.00,,,0.25,,2013-07-04 02:36:00,
2013-07-03 18:45:00,65.0,48.0,29.85,WSW,251,0.0,0.0,55,0.00,,,0.25,,2013-07-04 02:45:00,
2013-07-03 19:44:00,65.0,45.0,29.84,WSW,251,0.0,1.0,48,0.00,,,0.25,,2013-07-04 03:44:00,
2013-07-03 19:53:00,65.0,45.0,29.84,WSW,251,0.0,1.0,48,0.00,,,0.25,,2013-07-04 03:53:00,
2013-07-03 20:01:00,65.0,45.0,29.84,WSW,251,0.0,1.0,48,0.00,,,0.25,,2013-07-04 04:01:00,
2013-07-03 20:11:00,66.0,46.0,29.84,WSW,251,0.0,1.0,48,0.00,,,0.25,,2013-07-04 04:11:00,
2013-07-03 20:22:00,66.0,46.0,29.84,WSW,251,0.0,1.0,48,0.00,,,0.25,,2013-07-04 04:22:00,
2013-07-03 20:33:00,66.0,46.0,29.84,WSW,251,0.0,1.0,48,0.00,,,0.25,,2013-07-04 04:33:00,
2013-07-03 23:12:00,60.0,50.0,29.84,WSW,251,0.0,0.0,69,0.00,,,0.00,,2013-07-04 07:12:00,
2013-07-03 23:21:00,60.0,50.0,29.84,WSW,251,0.0,0.0,69,0.00,,,0.00,,2013-07-04 07:21:00,
2013-07-03 23:34:00,60.0,50.0,29.84,WSW,251,0.0,0.0,69,0.00,,,0.00,,2013-07-04 07:34:00,
2013-07-03 23:52:00,58.0,49.0,29.85,WSW,251,0.0,0.0,71,0.00,,,0.00,,2013-07-04 07:52:00,